sensor_id;sensor_type;location;lat;lon;timestamp;temperature;humidity
31783;DHT22;18351;47.560;9.708;2023-02-28T00:02:20;-0.90;99.90
31783;DHT22;18351;47.560;9.708;2023-02-28T00:04:45;-0.90;99.90
31783;DHT22;18351;47.560;9.708;2023-02-28T00:07:18;-1.00;99.90
31783;DHT22;18351;47.560;9.708;2023-02-28T00:09:44;-1.00;99.90
31783;DHT22;18351;47.560;9.708;2023-02-28T00:12:09;-1.00;99.90
31783;DHT22;18351;47.560;9.708;2023-02-28T00:14:38;-1.00;99.90
31783;DHT22;18351;47.560;9.708;2023-02-28T00:17:03;-1.00;99.90
31783;DHT22;18351;47.560;9.708;2023-02-28T00:19:29;-1.00;99.90
31783;DHT22;18351;47.560;9.708;2023-02-28T00:21:54;-1.00;99.90
31783;DHT22;18351;47.560;9.708;2023-02-28T00:24:20;-1.10;99.90
31783;DHT22;18351;47.560;9.708;2023-02-28T00:26:45;-1.10;99.90
31783;DHT22;18351;47.560;9.708;2023-02-28T00:29:11;-1.00;99.90
31783;DHT22;18351;47.560;9.708;2023-02-28T00:31:37;-1.10;99.90
31783;DHT22;18351;47.560;9.708;2023-02-28T00:34:02;-1.10;99.90
31783;DHT22;18351;47.560;9.708;2023-02-28T00:36:28;-1.10;99.90
31783;DHT22;18351;47.560;9.708;2023-02-28T00:38:53;-1.10;99.90
31783;DHT22;18351;47.560;9.708;2023-02-28T00:41:19;-1.10;99.90
31783;DHT22;18351;47.560;9.708;2023-02-28T00:43:45;-1.10;99.90
31783;DHT22;18351;47.560;9.708;2023-02-28T00:46:10;-1.10;99.90
31783;DHT22;18351;47.560;9.708;2023-02-28T00:48:36;-1.20;99.90
31783;DHT22;18351;47.560;9.708;2023-02-28T00:51:02;-1.10;99.90
31783;DHT22;18351;47.560;9.708;2023-02-28T00:53:28;-1.20;99.90
31783;DHT22;18351;47.560;9.708;2023-02-28T00:55:54;-1.20;99.90
31783;DHT22;18351;47.560;9.708;2023-02-28T00:58:19;-1.20;99.90
31783;DHT22;18351;47.560;9.708;2023-02-28T01:00:45;-1.20;99.90
31783;DHT22;18351;47.560;9.708;2023-02-28T01:03:15;-1.20;99.90
31783;DHT22;18351;47.560;9.708;2023-02-28T01:05:41;-1.20;99.90
31783;DHT22;18351;47.560;9.708;2023-02-28T01:08:07;-1.20;99.90
31783;DHT22;18351;47.560;9.708;2023-02-28T01:10:32;-1.20;99.90
31783;DHT22;18351;47.560;9.708;2023-02-28T01:12:58;-1.10;99.90
31783;DHT22;18351;47.560;9.708;2023-02-28T01:15:24;-1.20;99.90
31783;DHT22;18351;47.560;9.708;2023-02-28T01:17:50;-1.10;99.90
31783;DHT22;18351;47.560;9.708;2023-02-28T01:20:15;-1.20;99.90
31783;DHT22;18351;47.560;9.708;2023-02-28T01:22:41;-1.10;99.90
31783;DHT22;18351;47.560;9.708;2023-02-28T01:25:07;-1.20;99.90
31783;DHT22;18351;47.560;9.708;2023-02-28T01:27:33;-1.20;99.90
31783;DHT22;18351;47.560;9.708;2023-02-28T01:29:59;-1.20;99.90
31783;DHT22;18351;47.560;9.708;2023-02-28T01:32:24;-1.20;99.90
31783;DHT22;18351;47.560;9.708;2023-02-28T01:34:50;-1.20;99.90
31783;DHT22;18351;47.560;9.708;2023-02-28T01:37:15;-1.20;99.90
31783;DHT22;18351;47.560;9.708;2023-02-28T01:39:41;-1.20;99.90
31783;DHT22;18351;47.560;9.708;2023-02-28T01:42:09;-1.20;99.90
31783;DHT22;18351;47.560;9.708;2023-02-28T01:47:38;-1.20;99.90
31783;DHT22;18351;47.560;9.708;2023-02-28T01:50:13;-1.30;99.90
31783;DHT22;18351;47.560;9.708;2023-02-28T01:52:40;-1.20;99.90
31783;DHT22;18351;47.560;9.708;2023-02-28T01:55:07;-1.30;99.90
31783;DHT22;18351;47.560;9.708;2023-02-28T01:57:36;-1.30;99.90
31783;DHT22;18351;47.560;9.708;2023-02-28T02:00:12;-1.30;99.90
31783;DHT22;18351;47.560;9.708;2023-02-28T02:02:43;-1.30;99.90
31783;DHT22;18351;47.560;9.708;2023-02-28T02:05:16;-1.30;99.90
31783;DHT22;18351;47.560;9.708;2023-02-28T02:07:44;-1.40;99.90
31783;DHT22;18351;47.560;9.708;2023-02-28T02:10:16;-1.40;99.90
31783;DHT22;18351;47.560;9.708;2023-02-28T02:15:42;-1.40;99.90
31783;DHT22;18351;47.560;9.708;2023-02-28T02:18:48;-1.40;99.90
31783;DHT22;18351;47.560;9.708;2023-02-28T02:38:09;-1.50;99.90
31783;DHT22;18351;47.560;9.708;2023-02-28T02:40:56;-1.50;99.90
31783;DHT22;18351;47.560;9.708;2023-02-28T02:46:34;-1.50;99.90
31783;DHT22;18351;47.560;9.708;2023-02-28T02:49:03;-1.50;99.90
31783;DHT22;18351;47.560;9.708;2023-02-28T02:51:30;-1.50;99.90
31783;DHT22;18351;47.560;9.708;2023-02-28T02:54:06;-1.50;99.90
31783;DHT22;18351;47.560;9.708;2023-02-28T02:56:34;-1.50;99.90
31783;DHT22;18351;47.560;9.708;2023-02-28T02:59:07;-1.60;99.90
31783;DHT22;18351;47.560;9.708;2023-02-28T03:01:34;-1.60;99.90
31783;DHT22;18351;47.560;9.708;2023-02-28T03:04:04;-1.60;99.90
31783;DHT22;18351;47.560;9.708;2023-02-28T03:06:30;-1.60;99.90
31783;DHT22;18351;47.560;9.708;2023-02-28T03:08:55;-1.70;99.90
31783;DHT22;18351;47.560;9.708;2023-02-28T03:11:21;-1.70;99.90
31783;DHT22;18351;47.560;9.708;2023-02-28T03:14:15;-1.70;99.90
31783;DHT22;18351;47.560;9.708;2023-02-28T03:22:27;-1.80;99.90
31783;DHT22;18351;47.560;9.708;2023-02-28T03:25:15;-1.80;99.90
31783;DHT22;18351;47.560;9.708;2023-02-28T03:28:03;-1.80;99.90
31783;DHT22;18351;47.560;9.708;2023-02-28T03:30:41;-1.80;99.90
31783;DHT22;18351;47.560;9.708;2023-02-28T03:35:53;-1.90;99.90
31783;DHT22;18351;47.560;9.708;2023-02-28T03:40:51;-1.90;99.90
31783;DHT22;18351;47.560;9.708;2023-02-28T03:43:23;-1.80;99.90
31783;DHT22;18351;47.560;9.708;2023-02-28T03:45:50;-1.90;99.90
31783;DHT22;18351;47.560;9.708;2023-02-28T03:48:24;-1.90;99.90
31783;DHT22;18351;47.560;9.708;2023-02-28T03:50:54;-1.90;99.90
31783;DHT22;18351;47.560;9.708;2023-02-28T03:55:57;-1.90;99.90
31783;DHT22;18351;47.560;9.708;2023-02-28T04:03:54;-2.00;99.90
31783;DHT22;18351;47.560;9.708;2023-02-28T04:06:21;-1.90;99.90
31783;DHT22;18351;47.560;9.708;2023-02-28T04:08:47;-1.90;99.90
31783;DHT22;18351;47.560;9.708;2023-02-28T04:11:20;-1.90;99.90
31783;DHT22;18351;47.560;9.708;2023-02-28T04:13:46;-1.90;99.90
31783;DHT22;18351;47.560;9.708;2023-02-28T04:16:12;-2.00;99.90
31783;DHT22;18351;47.560;9.708;2023-02-28T04:18:39;-2.00;99.90
31783;DHT22;18351;47.560;9.708;2023-02-28T04:21:06;-1.90;99.90
31783;DHT22;18351;47.560;9.708;2023-02-28T04:23:32;-1.90;99.90
31783;DHT22;18351;47.560;9.708;2023-02-28T04:25:57;-1.90;99.90
31783;DHT22;18351;47.560;9.708;2023-02-28T04:28:23;-1.90;99.90
31783;DHT22;18351;47.560;9.708;2023-02-28T04:30:57;-1.90;99.90
31783;DHT22;18351;47.560;9.708;2023-02-28T04:33:23;-1.90;99.90
31783;DHT22;18351;47.560;9.708;2023-02-28T04:36:01;-1.90;99.90
31783;DHT22;18351;47.560;9.708;2023-02-28T04:38:28;-1.90;99.90
31783;DHT22;18351;47.560;9.708;2023-02-28T04:40:57;-1.90;99.90
31783;DHT22;18351;47.560;9.708;2023-02-28T04:43:23;-1.90;99.90
31783;DHT22;18351;47.560;9.708;2023-02-28T04:45:48;-1.90;99.90
31783;DHT22;18351;47.560;9.708;2023-02-28T04:48:14;-1.90;99.90
31783;DHT22;18351;47.560;9.708;2023-02-28T04:50:39;-1.80;99.90
31783;DHT22;18351;47.560;9.708;2023-02-28T04:53:05;-1.80;99.90
31783;DHT22;18351;47.560;9.708;2023-02-28T04:55:30;-1.70;99.90
31783;DHT22;18351;47.560;9.708;2023-02-28T04:57:56;-1.70;99.90
31783;DHT22;18351;47.560;9.708;2023-02-28T05:00:23;-1.80;99.90
31783;DHT22;18351;47.560;9.708;2023-02-28T05:02:48;-1.80;99.90
31783;DHT22;18351;47.560;9.708;2023-02-28T05:05:14;-1.80;99.90
31783;DHT22;18351;47.560;9.708;2023-02-28T05:07:44;-1.70;99.90
31783;DHT22;18351;47.560;9.708;2023-02-28T05:10:10;-1.80;99.90
31783;DHT22;18351;47.560;9.708;2023-02-28T05:12:36;-1.80;99.90
31783;DHT22;18351;47.560;9.708;2023-02-28T05:15:02;-1.80;99.90
31783;DHT22;18351;47.560;9.708;2023-02-28T05:17:28;-1.80;99.90
31783;DHT22;18351;47.560;9.708;2023-02-28T05:19:54;-1.80;99.90
31783;DHT22;18351;47.560;9.708;2023-02-28T05:22:19;-1.80;99.90
31783;DHT22;18351;47.560;9.708;2023-02-28T05:24:45;-1.80;99.90
31783;DHT22;18351;47.560;9.708;2023-02-28T05:27:11;-1.80;99.90
31783;DHT22;18351;47.560;9.708;2023-02-28T05:29:36;-1.80;99.90
31783;DHT22;18351;47.560;9.708;2023-02-28T05:32:11;-1.80;99.90
31783;DHT22;18351;47.560;9.708;2023-02-28T05:34:38;-1.70;99.90
31783;DHT22;18351;47.560;9.708;2023-02-28T05:37:05;-1.80;99.90
31783;DHT22;18351;47.560;9.708;2023-02-28T05:39:30;-1.80;99.90
31783;DHT22;18351;47.560;9.708;2023-02-28T05:41:56;-1.70;99.90
31783;DHT22;18351;47.560;9.708;2023-02-28T05:44:21;-1.70;99.90
31783;DHT22;18351;47.560;9.708;2023-02-28T05:46:47;-1.70;99.90
31783;DHT22;18351;47.560;9.708;2023-02-28T05:49:12;-1.70;99.90
31783;DHT22;18351;47.560;9.708;2023-02-28T05:51:38;-1.80;99.90
31783;DHT22;18351;47.560;9.708;2023-02-28T05:54:05;-1.80;99.90
31783;DHT22;18351;47.560;9.708;2023-02-28T05:56:31;-1.80;99.90
31783;DHT22;18351;47.560;9.708;2023-02-28T05:58:59;-1.80;99.90
31783;DHT22;18351;47.560;9.708;2023-02-28T06:01:37;-1.80;99.90
31783;DHT22;18351;47.560;9.708;2023-02-28T06:04:05;-1.80;99.90
31783;DHT22;18351;47.560;9.708;2023-02-28T06:06:31;-1.90;99.90
31783;DHT22;18351;47.560;9.708;2023-02-28T06:08:57;-1.90;99.90
31783;DHT22;18351;47.560;9.708;2023-02-28T06:11:23;-1.90;99.90
31783;DHT22;18351;47.560;9.708;2023-02-28T06:13:54;-1.90;99.90
31783;DHT22;18351;47.560;9.708;2023-02-28T06:16:20;-1.90;99.90
31783;DHT22;18351;47.560;9.708;2023-02-28T06:18:46;-1.90;99.90
31783;DHT22;18351;47.560;9.708;2023-02-28T06:21:12;-1.90;99.90
31783;DHT22;18351;47.560;9.708;2023-02-28T06:23:38;-1.90;99.90
31783;DHT22;18351;47.560;9.708;2023-02-28T06:26:04;-1.90;99.90
31783;DHT22;18351;47.560;9.708;2023-02-28T06:28:30;-1.90;99.90
31783;DHT22;18351;47.560;9.708;2023-02-28T06:30:56;-1.90;99.90
31783;DHT22;18351;47.560;9.708;2023-02-28T06:33:22;-1.90;99.90
31783;DHT22;18351;47.560;9.708;2023-02-28T06:35:50;-1.90;99.90
31783;DHT22;18351;47.560;9.708;2023-02-28T06:38:16;-1.90;99.90
31783;DHT22;18351;47.560;9.708;2023-02-28T06:40:41;-1.90;99.90
31783;DHT22;18351;47.560;9.708;2023-02-28T06:43:07;-1.80;99.90
31783;DHT22;18351;47.560;9.708;2023-02-28T06:45:33;-1.80;99.90
31783;DHT22;18351;47.560;9.708;2023-02-28T06:47:58;-1.80;99.90
31783;DHT22;18351;47.560;9.708;2023-02-28T06:50:25;-1.80;99.90
31783;DHT22;18351;47.560;9.708;2023-02-28T06:52:52;-1.80;99.90
31783;DHT22;18351;47.560;9.708;2023-02-28T06:55:20;-1.80;99.90
31783;DHT22;18351;47.560;9.708;2023-02-28T06:57:46;-1.70;99.90
31783;DHT22;18351;47.560;9.708;2023-02-28T07:00:12;-1.60;99.90
31783;DHT22;18351;47.560;9.708;2023-02-28T07:02:38;-1.50;99.90
31783;DHT22;18351;47.560;9.708;2023-02-28T07:05:05;-1.50;99.90
31783;DHT22;18351;47.560;9.708;2023-02-28T07:07:30;-1.50;99.90
31783;DHT22;18351;47.560;9.708;2023-02-28T07:09:57;-1.40;99.90
31783;DHT22;18351;47.560;9.708;2023-02-28T07:12:23;-1.30;99.90
31783;DHT22;18351;47.560;9.708;2023-02-28T07:14:48;-1.30;99.90
31783;DHT22;18351;47.560;9.708;2023-02-28T07:17:14;-1.30;99.90
31783;DHT22;18351;47.560;9.708;2023-02-28T07:19:39;-1.20;99.90
31783;DHT22;18351;47.560;9.708;2023-02-28T07:22:06;-1.10;99.90
31783;DHT22;18351;47.560;9.708;2023-02-28T07:24:31;-1.10;99.90
31783;DHT22;18351;47.560;9.708;2023-02-28T07:26:57;-1.00;99.90
31783;DHT22;18351;47.560;9.708;2023-02-28T07:29:23;-1.00;99.90
31783;DHT22;18351;47.560;9.708;2023-02-28T07:31:48;-0.90;99.90
31783;DHT22;18351;47.560;9.708;2023-02-28T07:34:15;-0.90;99.90
31783;DHT22;18351;47.560;9.708;2023-02-28T07:36:41;-0.80;99.90
31783;DHT22;18351;47.560;9.708;2023-02-28T07:39:06;-0.80;99.90
31783;DHT22;18351;47.560;9.708;2023-02-28T07:41:34;-0.80;99.90
31783;DHT22;18351;47.560;9.708;2023-02-28T07:44:03;-0.80;99.90
31783;DHT22;18351;47.560;9.708;2023-02-28T07:46:28;-0.70;99.90
31783;DHT22;18351;47.560;9.708;2023-02-28T07:49:00;-0.60;99.90
31783;DHT22;18351;47.560;9.708;2023-02-28T07:51:25;-0.50;99.90
31783;DHT22;18351;47.560;9.708;2023-02-28T07:53:51;-0.50;99.90
31783;DHT22;18351;47.560;9.708;2023-02-28T07:56:17;-0.40;99.90
31783;DHT22;18351;47.560;9.708;2023-02-28T07:58:42;-0.40;99.90
31783;DHT22;18351;47.560;9.708;2023-02-28T08:01:09;-0.40;99.90
31783;DHT22;18351;47.560;9.708;2023-02-28T08:03:35;-0.40;99.90
31783;DHT22;18351;47.560;9.708;2023-02-28T08:06:06;-0.40;99.90
31783;DHT22;18351;47.560;9.708;2023-02-28T08:08:31;-0.40;99.90
31783;DHT22;18351;47.560;9.708;2023-02-28T08:11:01;-0.40;99.90
31783;DHT22;18351;47.560;9.708;2023-02-28T08:13:28;-0.40;99.90
31783;DHT22;18351;47.560;9.708;2023-02-28T08:15:55;-0.30;99.90
31783;DHT22;18351;47.560;9.708;2023-02-28T08:18:21;-0.30;99.90
31783;DHT22;18351;47.560;9.708;2023-02-28T08:20:47;-0.30;99.90
31783;DHT22;18351;47.560;9.708;2023-02-28T08:23:13;-0.30;99.90
31783;DHT22;18351;47.560;9.708;2023-02-28T08:25:39;-0.20;99.90
31783;DHT22;18351;47.560;9.708;2023-02-28T08:28:04;-0.20;99.90
31783;DHT22;18351;47.560;9.708;2023-02-28T08:30:30;-0.10;99.90
31783;DHT22;18351;47.560;9.708;2023-02-28T08:32:55;-0.10;99.90
31783;DHT22;18351;47.560;9.708;2023-02-28T08:35:21;-0.10;99.90
31783;DHT22;18351;47.560;9.708;2023-02-28T08:37:50;0.00;99.90
31783;DHT22;18351;47.560;9.708;2023-02-28T08:40:16;0.10;99.90
31783;DHT22;18351;47.560;9.708;2023-02-28T08:42:47;0.10;99.90
31783;DHT22;18351;47.560;9.708;2023-02-28T08:45:14;0.00;99.90
31783;DHT22;18351;47.560;9.708;2023-02-28T08:47:40;0.00;99.90
31783;DHT22;18351;47.560;9.708;2023-02-28T08:50:06;0.10;99.90
31783;DHT22;18351;47.560;9.708;2023-02-28T08:52:32;0.10;99.90
31783;DHT22;18351;47.560;9.708;2023-02-28T08:54:57;0.20;99.90
31783;DHT22;18351;47.560;9.708;2023-02-28T08:57:23;0.30;99.90
31783;DHT22;18351;47.560;9.708;2023-02-28T08:59:51;0.40;99.90
31783;DHT22;18351;47.560;9.708;2023-02-28T09:02:17;0.60;99.90
31783;DHT22;18351;47.560;9.708;2023-02-28T09:04:43;0.70;99.90
31783;DHT22;18351;47.560;9.708;2023-02-28T09:07:10;0.70;99.90
31783;DHT22;18351;47.560;9.708;2023-02-28T09:09:36;0.70;99.90
31783;DHT22;18351;47.560;9.708;2023-02-28T09:12:02;0.70;99.90
31783;DHT22;18351;47.560;9.708;2023-02-28T09:14:28;0.70;99.90
31783;DHT22;18351;47.560;9.708;2023-02-28T09:16:53;0.70;99.90
31783;DHT22;18351;47.560;9.708;2023-02-28T09:19:20;0.70;99.90
31783;DHT22;18351;47.560;9.708;2023-02-28T09:21:45;0.80;99.90
31783;DHT22;18351;47.560;9.708;2023-02-28T09:24:11;0.90;99.90
31783;DHT22;18351;47.560;9.708;2023-02-28T09:26:39;0.80;99.90
31783;DHT22;18351;47.560;9.708;2023-02-28T09:29:05;0.90;99.90
31783;DHT22;18351;47.560;9.708;2023-02-28T09:31:32;0.90;99.90
31783;DHT22;18351;47.560;9.708;2023-02-28T09:33:58;1.00;99.90
31783;DHT22;18351;47.560;9.708;2023-02-28T09:36:25;1.10;99.90
31783;DHT22;18351;47.560;9.708;2023-02-28T09:38:51;1.20;99.90
31783;DHT22;18351;47.560;9.708;2023-02-28T09:41:27;1.40;99.90
31783;DHT22;18351;47.560;9.708;2023-02-28T09:44:03;1.40;99.90
31783;DHT22;18351;47.560;9.708;2023-02-28T09:46:43;1.40;99.90
31783;DHT22;18351;47.560;9.708;2023-02-28T09:49:19;1.40;99.90
31783;DHT22;18351;47.560;9.708;2023-02-28T09:54:26;1.40;99.90
31783;DHT22;18351;47.560;9.708;2023-02-28T10:00:27;1.60;99.90
31783;DHT22;18351;47.560;9.708;2023-02-28T10:03:23;1.80;99.90
31783;DHT22;18351;47.560;9.708;2023-02-28T10:06:17;1.80;99.90
31783;DHT22;18351;47.560;9.708;2023-02-28T10:11:27;1.80;99.90
31783;DHT22;18351;47.560;9.708;2023-02-28T10:16:39;1.90;99.90
31783;DHT22;18351;47.560;9.708;2023-02-28T10:21:47;2.30;99.90
31783;DHT22;18351;47.560;9.708;2023-02-28T10:24:32;2.40;99.70
31783;DHT22;18351;47.560;9.708;2023-02-28T10:27:06;2.30;99.40
31783;DHT22;18351;47.560;9.708;2023-02-28T10:29:36;2.50;98.80
31783;DHT22;18351;47.560;9.708;2023-02-28T10:32:03;2.50;98.60
31783;DHT22;18351;47.560;9.708;2023-02-28T10:34:29;2.50;98.30
31783;DHT22;18351;47.560;9.708;2023-02-28T10:36:56;2.30;98.30
31783;DHT22;18351;47.560;9.708;2023-02-28T10:39:42;2.30;99.50
31783;DHT22;18351;47.560;9.708;2023-02-28T10:42:28;2.30;98.30
31783;DHT22;18351;47.560;9.708;2023-02-28T10:47:40;2.40;98.30
31783;DHT22;18351;47.560;9.708;2023-02-28T10:50:30;2.50;99.00
31783;DHT22;18351;47.560;9.708;2023-02-28T10:55:36;2.70;98.20
31783;DHT22;18351;47.560;9.708;2023-02-28T10:58:02;2.70;99.00
31783;DHT22;18351;47.560;9.708;2023-02-28T11:00:34;2.70;98.10
31783;DHT22;18351;47.560;9.708;2023-02-28T11:03:00;2.70;98.40
31783;DHT22;18351;47.560;9.708;2023-02-28T11:05:31;2.60;99.00
31783;DHT22;18351;47.560;9.708;2023-02-28T11:08:06;2.70;98.50
31783;DHT22;18351;47.560;9.708;2023-02-28T11:10:36;2.70;98.20
31783;DHT22;18351;47.560;9.708;2023-02-28T11:13:02;2.70;97.30
31783;DHT22;18351;47.560;9.708;2023-02-28T11:15:32;2.80;98.10
31783;DHT22;18351;47.560;9.708;2023-02-28T11:18:29;2.90;97.30
31783;DHT22;18351;47.560;9.708;2023-02-28T11:20:57;2.80;96.70
31783;DHT22;18351;47.560;9.708;2023-02-28T11:23:26;2.70;96.90
31783;DHT22;18351;47.560;9.708;2023-02-28T11:25:55;2.80;96.60
31783;DHT22;18351;47.560;9.708;2023-02-28T11:28:29;2.80;96.60
31783;DHT22;18351;47.560;9.708;2023-02-28T11:31:01;2.90;96.60
31783;DHT22;18351;47.560;9.708;2023-02-28T11:33:40;2.90;96.60
31783;DHT22;18351;47.560;9.708;2023-02-28T11:36:13;3.00;97.10
31783;DHT22;18351;47.560;9.708;2023-02-28T11:38:39;3.20;96.80
31783;DHT22;18351;47.560;9.708;2023-02-28T11:51:34;3.30;95.50
31783;DHT22;18351;47.560;9.708;2023-02-28T11:57:09;3.10;95.70
31783;DHT22;18351;47.560;9.708;2023-02-28T12:02:55;3.40;95.50
31783;DHT22;18351;47.560;9.708;2023-02-28T12:05:36;3.40;94.90
31783;DHT22;18351;47.560;9.708;2023-02-28T12:11:05;3.40;97.10
31783;DHT22;18351;47.560;9.708;2023-02-28T12:16:46;3.70;96.20
31783;DHT22;18351;47.560;9.708;2023-02-28T12:19:26;3.80;95.90
31783;DHT22;18351;47.560;9.708;2023-02-28T12:22:26;3.80;96.10
31783;DHT22;18351;47.560;9.708;2023-02-28T12:27:44;3.80;95.20
31783;DHT22;18351;47.560;9.708;2023-02-28T12:30:22;3.90;94.60
31783;DHT22;18351;47.560;9.708;2023-02-28T12:32:58;4.00;94.20
31783;DHT22;18351;47.560;9.708;2023-02-28T12:35:34;4.10;94.80
31783;DHT22;18351;47.560;9.708;2023-02-28T12:38:19;4.10;93.80
31783;DHT22;18351;47.560;9.708;2023-02-28T12:40:54;3.90;94.70
31783;DHT22;18351;47.560;9.708;2023-02-28T12:43:27;3.80;95.80
31783;DHT22;18351;47.560;9.708;2023-02-28T12:46:00;3.80;94.50
31783;DHT22;18351;47.560;9.708;2023-02-28T12:48:36;3.80;95.10
31783;DHT22;18351;47.560;9.708;2023-02-28T12:51:03;3.90;95.20
31783;DHT22;18351;47.560;9.708;2023-02-28T12:53:50;3.90;94.80
31783;DHT22;18351;47.560;9.708;2023-02-28T12:59:22;3.90;94.70
31783;DHT22;18351;47.560;9.708;2023-02-28T13:02:00;3.80;95.60
31783;DHT22;18351;47.560;9.708;2023-02-28T13:07:46;3.80;95.00
31783;DHT22;18351;47.560;9.708;2023-02-28T13:10:18;3.60;94.40
31783;DHT22;18351;47.560;9.708;2023-02-28T13:12:54;3.70;94.70
31783;DHT22;18351;47.560;9.708;2023-02-28T13:15:27;3.70;94.90
31783;DHT22;18351;47.560;9.708;2023-02-28T13:18:00;3.70;94.40
31783;DHT22;18351;47.560;9.708;2023-02-28T13:20:34;3.60;95.10
31783;DHT22;18351;47.560;9.708;2023-02-28T13:23:00;3.70;95.00
31783;DHT22;18351;47.560;9.708;2023-02-28T13:28:03;3.80;95.10
31783;DHT22;18351;47.560;9.708;2023-02-28T13:33:37;3.80;95.20
31783;DHT22;18351;47.560;9.708;2023-02-28T13:36:29;3.80;95.00
31783;DHT22;18351;47.560;9.708;2023-02-28T13:38:58;3.80;95.30
31783;DHT22;18351;47.560;9.708;2023-02-28T13:46:30;3.70;96.10
31783;DHT22;18351;47.560;9.708;2023-02-28T13:48:58;3.70;95.30
31783;DHT22;18351;47.560;9.708;2023-02-28T13:51:45;3.70;96.10
31783;DHT22;18351;47.560;9.708;2023-02-28T13:59:56;3.60;95.70
31783;DHT22;18351;47.560;9.708;2023-02-28T14:05:15;3.60;95.90
31783;DHT22;18351;47.560;9.708;2023-02-28T14:07:50;3.60;95.60
31783;DHT22;18351;47.560;9.708;2023-02-28T14:10:46;3.60;95.50
31783;DHT22;18351;47.560;9.708;2023-02-28T14:13:40;3.50;96.00
31783;DHT22;18351;47.560;9.708;2023-02-28T14:16:14;3.50;96.00
31783;DHT22;18351;47.560;9.708;2023-02-28T14:18:58;3.50;96.20
31783;DHT22;18351;47.560;9.708;2023-02-28T14:21:37;3.40;97.10
31783;DHT22;18351;47.560;9.708;2023-02-28T14:27:06;3.30;96.60
31783;DHT22;18351;47.560;9.708;2023-02-28T14:29:59;3.30;96.60
31783;DHT22;18351;47.560;9.708;2023-02-28T14:35:42;3.30;97.30
31783;DHT22;18351;47.560;9.708;2023-02-28T14:38:28;3.40;97.20
31783;DHT22;18351;47.560;9.708;2023-02-28T14:40:57;3.50;96.60
31783;DHT22;18351;47.560;9.708;2023-02-28T14:43:27;3.30;97.00
31783;DHT22;18351;47.560;9.708;2023-02-28T14:45:57;3.30;97.10
31783;DHT22;18351;47.560;9.708;2023-02-28T14:48:23;3.20;97.20
31783;DHT22;18351;47.560;9.708;2023-02-28T14:50:59;3.10;97.30
31783;DHT22;18351;47.560;9.708;2023-02-28T14:53:29;3.20;97.80
31783;DHT22;18351;47.560;9.708;2023-02-28T14:55:55;3.30;97.30
31783;DHT22;18351;47.560;9.708;2023-02-28T14:58:24;3.20;97.50
31783;DHT22;18351;47.560;9.708;2023-02-28T15:00:53;3.10;97.80
31783;DHT22;18351;47.560;9.708;2023-02-28T15:03:20;3.00;98.00
31783;DHT22;18351;47.560;9.708;2023-02-28T15:05:58;3.00;98.30
31783;DHT22;18351;47.560;9.708;2023-02-28T15:08:25;2.80;98.00
31783;DHT22;18351;47.560;9.708;2023-02-28T15:13:17;2.90;98.80
31783;DHT22;18351;47.560;9.708;2023-02-28T15:18:23;2.60;98.90
31783;DHT22;18351;47.560;9.708;2023-02-28T15:20:52;2.50;98.80
31783;DHT22;18351;47.560;9.708;2023-02-28T15:23:19;2.50;99.80
31783;DHT22;18351;47.560;9.708;2023-02-28T15:25:47;2.40;99.90
31783;DHT22;18351;47.560;9.708;2023-02-28T15:28:16;2.30;99.90
31783;DHT22;18351;47.560;9.708;2023-02-28T15:30:52;2.30;99.90
31783;DHT22;18351;47.560;9.708;2023-02-28T15:33:21;2.20;99.90
31783;DHT22;18351;47.560;9.708;2023-02-28T15:35:48;2.20;99.90
31783;DHT22;18351;47.560;9.708;2023-02-28T15:38:25;2.10;99.90
31783;DHT22;18351;47.560;9.708;2023-02-28T15:40:53;2.10;99.90
31783;DHT22;18351;47.560;9.708;2023-02-28T15:43:26;2.00;99.90
31783;DHT22;18351;47.560;9.708;2023-02-28T15:46:01;2.00;99.90
31783;DHT22;18351;47.560;9.708;2023-02-28T15:48:30;2.00;99.90
31783;DHT22;18351;47.560;9.708;2023-02-28T15:53:51;1.80;99.90
31783;DHT22;18351;47.560;9.708;2023-02-28T15:58:50;1.70;99.90
31783;DHT22;18351;47.560;9.708;2023-02-28T16:01:26;1.70;99.90
31783;DHT22;18351;47.560;9.708;2023-02-28T16:03:55;1.60;99.90
31783;DHT22;18351;47.560;9.708;2023-02-28T16:08:49;1.60;99.90
31783;DHT22;18351;47.560;9.708;2023-02-28T16:11:16;1.60;99.90
31783;DHT22;18351;47.560;9.708;2023-02-28T16:13:42;1.60;99.90
31783;DHT22;18351;47.560;9.708;2023-02-28T16:16:08;1.50;99.90
31783;DHT22;18351;47.560;9.708;2023-02-28T16:18:33;1.50;99.90
31783;DHT22;18351;47.560;9.708;2023-02-28T16:20:59;1.50;99.90
31783;DHT22;18351;47.560;9.708;2023-02-28T16:23:24;1.50;99.90
31783;DHT22;18351;47.560;9.708;2023-02-28T16:25:50;1.40;99.90
31783;DHT22;18351;47.560;9.708;2023-02-28T16:28:27;1.40;99.90
31783;DHT22;18351;47.560;9.708;2023-02-28T16:30:59;1.30;99.90
31783;DHT22;18351;47.560;9.708;2023-02-28T16:33:26;1.20;99.90
31783;DHT22;18351;47.560;9.708;2023-02-28T16:35:52;1.30;99.90
31783;DHT22;18351;47.560;9.708;2023-02-28T16:38:17;1.20;99.90
31783;DHT22;18351;47.560;9.708;2023-02-28T16:40:44;1.20;99.90
31783;DHT22;18351;47.560;9.708;2023-02-28T16:43:16;1.10;99.90
31783;DHT22;18351;47.560;9.708;2023-02-28T16:45:42;1.10;99.90
31783;DHT22;18351;47.560;9.708;2023-02-28T16:48:13;1.10;99.90
31783;DHT22;18351;47.560;9.708;2023-02-28T16:50:39;1.10;99.90
31783;DHT22;18351;47.560;9.708;2023-02-28T16:53:05;1.10;99.90
31783;DHT22;18351;47.560;9.708;2023-02-28T16:55:30;1.00;99.90
31783;DHT22;18351;47.560;9.708;2023-02-28T16:58:00;1.00;99.90
31783;DHT22;18351;47.560;9.708;2023-02-28T17:00:27;1.00;99.90
31783;DHT22;18351;47.560;9.708;2023-02-28T17:02:54;0.90;99.90
31783;DHT22;18351;47.560;9.708;2023-02-28T17:05:20;0.90;99.90
31783;DHT22;18351;47.560;9.708;2023-02-28T17:07:47;0.80;99.90
31783;DHT22;18351;47.560;9.708;2023-02-28T17:10:18;0.80;99.90
31783;DHT22;18351;47.560;9.708;2023-02-28T17:12:44;0.80;99.90
31783;DHT22;18351;47.560;9.708;2023-02-28T17:15:12;0.80;99.90
31783;DHT22;18351;47.560;9.708;2023-02-28T17:17:38;0.80;99.90
31783;DHT22;18351;47.560;9.708;2023-02-28T17:20:04;0.80;99.90
31783;DHT22;18351;47.560;9.708;2023-02-28T17:22:31;0.80;99.90
31783;DHT22;18351;47.560;9.708;2023-02-28T17:24:57;0.90;99.90
31783;DHT22;18351;47.560;9.708;2023-02-28T17:27:24;0.90;99.90
31783;DHT22;18351;47.560;9.708;2023-02-28T17:29:50;0.90;99.90
31783;DHT22;18351;47.560;9.708;2023-02-28T17:32:15;0.90;99.90
31783;DHT22;18351;47.560;9.708;2023-02-28T17:34:41;0.80;99.90
31783;DHT22;18351;47.560;9.708;2023-02-28T17:37:08;0.80;99.90
31783;DHT22;18351;47.560;9.708;2023-02-28T17:39:34;0.80;99.90
31783;DHT22;18351;47.560;9.708;2023-02-28T17:41:59;0.80;99.90
31783;DHT22;18351;47.560;9.708;2023-02-28T17:44:25;0.80;99.90
31783;DHT22;18351;47.560;9.708;2023-02-28T17:46:51;0.80;99.90
31783;DHT22;18351;47.560;9.708;2023-02-28T17:49:18;0.70;99.90
31783;DHT22;18351;47.560;9.708;2023-02-28T17:51:45;0.80;99.90
31783;DHT22;18351;47.560;9.708;2023-02-28T17:54:10;0.70;99.90
31783;DHT22;18351;47.560;9.708;2023-02-28T17:56:36;0.80;99.90
31783;DHT22;18351;47.560;9.708;2023-02-28T17:59:02;0.80;99.90
31783;DHT22;18351;47.560;9.708;2023-02-28T18:01:27;0.80;99.90
31783;DHT22;18351;47.560;9.708;2023-02-28T18:03:53;0.80;99.90
31783;DHT22;18351;47.560;9.708;2023-02-28T18:06:25;0.70;99.90